Perulpa — 29145QE — position and weather

sailwx.info

Track history (hours):
 
Tides and Currents Weather Stations Pressure Air Temp Water Temp Dewpoint Dewpoint Depression Visibility Wind Speed Wind Dir Waves Ship Positions

Perulpa

Last reported at 2017-Oct-23 04:27 UTC. Time now 2017-Oct-23 04:38 UTC.
Position S 27°39' E 153°22'.

Length 24 m.

Type: Passenger vessel. MMSI: 503701100.

Date/timePositionNaut miles runAvg speedWind from/ knotsBaromVisibWave heightAir tempDewpointWater temp
2017-Oct-23 04:27S 27°39' E 153°22'1 1.2
2017-Oct-23 03:54S 27°39' E 153°21'1 1.7
2017-Oct-23 03:26S 27°38' E 153°22'1 1.0
2017-Oct-23 02:52S 27°39' E 153°21'1 0.8
2017-Oct-23 01:08S 27°38' E 153°22'1 4.2
2017-Oct-23 00:56S 27°38' E 153°21'1 1.4
2017-Oct-23 00:30S 27°39' E 153°21'1 1.5
2017-Oct-22 23:55S 27°38' E 153°22'1 2.7
2017-Oct-22 23:24S 27°38' E 153°20'1 1.7
2017-Oct-22 22:51S 27°38' E 153°22'3 2.8
2017-Oct-22 21:51S 27°37' E 153°19'3 7.9
2017-Oct-22 21:25S 27°38' E 153°23'1 2.0
2017-Oct-22 20:44S 27°39' E 153°21'2 7.1
2017-Oct-22 20:29S 27°38' E 153°23'4 6.4
2017-Oct-22 19:53S 27°37' E 153°19'4 9.9
2017-Oct-22 19:30S 27°38' E 153°23'3 3.2
2017-Oct-22 18:43S 27°38' E 153°20'311.8
2017-Oct-22 18:28S 27°38' E 153°23'0 0.0
2017-Oct-22 08:11S 27°38' E 153°23'1 7.9
2017-Oct-22 08:00S 27°38' E 153°22'3 4.0
2017-Oct-22 07:19S 27°37' E 153°19'413.5
2017-Oct-22 07:00S 27°38' E 153°23'2 2.4
2017-Oct-22 06:06S 27°39' E 153°21'2 9.8
2017-Oct-22 05:54S 27°38' E 153°23'3 8.5
2017-Oct-22 05:30S 27°38' E 153°20'2 4.1
2017-Oct-22 04:59S 27°38' E 153°22'0 0.5
2017-Oct-22 04:30S 27°38' E 153°22'3 3.9
2017-Oct-22 03:47S 27°37' E 153°19'412.6
2017-Oct-22 03:27S 27°38' E 153°23'2 2.5
2017-Oct-22 02:38S 27°39' E 153°21'1 5.6
2017-Oct-22 02:23S 27°38' E 153°22'1 1.9
2017-Oct-22 01:39S 27°39' E 153°21'1 4.7
2017-Oct-22 01:21S 27°38' E 153°22'3 5.5
2017-Oct-22 00:47S 27°37' E 153°19'413.5
2017-Oct-22 00:29S 27°39' E 153°23'4 5.9
2017-Oct-21 23:48S 27°37' E 153°19'412.0
2017-Oct-21 23:28S 27°39' E 153°23'2 1.4
2017-Oct-21 22:14S 27°39' E 153°21'2 8.7
2017-Oct-21 22:00S 27°38' E 153°23'2 2.6
2017-Oct-21 21:14S 27°39' E 153°21'1 0.1
2017-Oct-21 08:07S 27°38' E 153°22'0 3.7
2017-Oct-21 08:00S 27°38' E 153°22'1 1.5
2017-Oct-21 07:13S 27°39' E 153°21'0 0.0
2017-Oct-21 06:05S 27°39' E 153°21'2 5.2
2017-Oct-21 05:47S 27°38' E 153°22'2 7.4
2017-Oct-21 05:30S 27°38' E 153°20'2 3.1
2017-Oct-21 04:58S 27°38' E 153°22'0 0.6
2017-Oct-21 04:26S 27°38' E 153°22'1 0.9
2017-Oct-21 03:38S 27°39' E 153°21'210.1
2017-Oct-21 03:27S 27°39' E 153°23'2 2.5
2017-Oct-21 02:40S 27°39' E 153°21'1 5.2
2017-Oct-21 02:24S 27°38' E 153°22'1 2.0
2017-Oct-21 01:39S 27°39' E 153°21'210.2
2017-Oct-21 01:26S 27°38' E 153°23'4 6.5
2017-Oct-21 00:46S 27°37' E 153°19'413.1
2017-Oct-21 00:27S 27°39' E 153°23'2 2.4
2017-Oct-20 23:40S 27°39' E 153°21'2 9.4
2017-Oct-20 23:26S 27°38' E 153°23'2 1.7
2017-Oct-20 22:15S 27°39' E 153°21'1 4.5
2017-Oct-20 21:58S 27°38' E 153°22'1 2.0
2017-Oct-20 21:15S 27°39' E 153°21'2 0.2
2017-Oct-20 09:14S 27°38' E 153°23'2 9.3
2017-Oct-20 09:00S 27°39' E 153°21'0 0.2
2017-Oct-20 08:29S 27°39' E 153°21'0 0.7
2017-Oct-20 08:00S 27°38' E 153°21'1 1.0
2017-Oct-20 07:29S 27°39' E 153°21'0 0.5
2017-Oct-20 07:00S 27°39' E 153°21'0 0.9
2017-Oct-20 06:29S 27°38' E 153°21'0 0.9
2017-Oct-20 06:00S 27°39' E 153°21'0 0.2
2017-Oct-20 05:30S 27°39' E 153°21'1 2.4
2017-Oct-20 05:00S 27°38' E 153°22'3 5.2
2017-Oct-20 04:27S 27°37' E 153°19'4 2.3
2017-Oct-20 02:45S 27°39' E 153°23'1 4.5
2017-Oct-20 02:30S 27°38' E 153°22'2 2.0
2017-Oct-20 01:43S 27°38' E 153°20'2 7.2
2017-Oct-20 01:30S 27°38' E 153°22'3 3.9
2017-Oct-20 00:48S 27°37' E 153°19'3 9.5
2017-Oct-20 00:30S 27°38' E 153°22'1 0.9
2017-Oct-19 23:16S 27°39' E 153°21'2 7.5
2017-Oct-19 23:00S 27°38' E 153°23'2 2.7
2017-Oct-19 22:12S 27°39' E 153°21'2 9.7
2017-Oct-19 21:57S 27°38' E 153°23'4 9.9
2017-Oct-19 21:30S 27°37' E 153°19'3 5.7
2017-Oct-19 21:00S 27°38' E 153°22'1 0.1
2017-Oct-19 09:16S 27°39' E 153°23'2 5.5
2017-Oct-19 09:00S 27°38' E 153°21'1 1.3
2017-Oct-19 08:30S 27°38' E 153°21'1 1.3
2017-Oct-19 08:00S 27°38' E 153°21'0 0.6
2017-Oct-19 07:30S 27°39' E 153°21'1 1.2
2017-Oct-19 07:00S 27°38' E 153°20'1 2.5
2017-Oct-19 06:30S 27°39' E 153°22'1 2.0
2017-Oct-19 06:00S 27°39' E 153°21'0 0.8
2017-Oct-19 05:30S 27°39' E 153°21'1 1.8
2017-Oct-19 04:59S 27°38' E 153°22'3 5.3
2017-Oct-19 04:26S 27°37' E 153°19'4 2.4
2017-Oct-19 02:44S 27°39' E 153°23'1 4.6
2017-Oct-19 02:27S 27°38' E 153°22'1 1.1
2017-Oct-19 01:40S 27°39' E 153°21'1 6.6
2017-Oct-19 01:29S 27°38' E 153°22'3 4.2
2017-Oct-19 00:48S 27°37' E 153°19'3 9.8
2017-Oct-19 00:30S 27°38' E 153°22'1 0.9
2017-Oct-18 23:15S 27°39' E 153°21'1 5.3
2017-Oct-18 22:59S 27°38' E 153°22'1 1.8
2017-Oct-18 22:09S 27°39' E 153°21'1 5.2
2017-Oct-18 21:53S 27°38' E 153°22'1 1.7
2017-Oct-18 21:04S 27°39' E 153°21'1 7.0
2017-Oct-18 20:55S 27°38' E 153°22'0 0.0
2017-Oct-18 09:12S 27°38' E 153°22'1 5.1
2017-Oct-18 09:00S 27°38' E 153°21'0 0.8
2017-Oct-18 08:30S 27°39' E 153°21'0 0.3
2017-Oct-18 07:59S 27°39' E 153°21'1 0.3
2017-Oct-18 06:27S 27°38' E 153°21'1 1.1
2017-Oct-18 05:58S 27°39' E 153°21'1 0.7
2017-Oct-18 04:51S 27°38' E 153°22'1 1.4
2017-Oct-18 04:19S 27°39' E 153°21'2 1.3
2017-Oct-18 02:41S 27°38' E 153°23'1 7.1
2017-Oct-18 02:29S 27°38' E 153°22'1 1.1
2017-Oct-18 01:40S 27°39' E 153°21'1 6.9
2017-Oct-18 01:30S 27°38' E 153°22'1 1.2
2017-Oct-18 00:39S 27°39' E 153°21'1 6.8
2017-Oct-18 00:30S 27°38' E 153°22'1 0.9
2017-Oct-17 23:15S 27°39' E 153°21'2 9.0
2017-Oct-17 23:00S 27°38' E 153°23'2 2.6
2017-Oct-17 22:10S 27°39' E 153°21'2 9.0
2017-Oct-17 21:56S 27°38' E 153°23'2 2.7
2017-Oct-17 21:06S 27°39' E 153°21'2 0.1
2017-Oct-17 09:20S 27°39' E 153°23'1 4.3
2017-Oct-17 09:00S 27°38' E 153°21'0 1.0
2017-Oct-17 08:30S 27°39' E 153°21'1 1.2
2017-Oct-17 08:00S 27°38' E 153°21'1 1.1
2017-Oct-17 07:28S 27°39' E 153°21'0 0.4
2017-Oct-17 06:27S 27°38' E 153°21'1 1.4
2017-Oct-17 05:57S 27°38' E 153°20'1 1.3
2017-Oct-17 05:30S 27°39' E 153°21'1 2.2
2017-Oct-17 05:00S 27°38' E 153°22'1 1.8
2017-Oct-17 04:19S 27°39' E 153°21'0 0.0
2017-Oct-17 01:40S 27°39' E 153°21'2 5.9
2017-Oct-17 01:22S 27°39' E 153°23'4 7.1
2017-Oct-17 00:47S 27°37' E 153°19'3 9.9
2017-Oct-17 00:30S 27°38' E 153°22'1 0.7
2017-Oct-16 23:13S 27°39' E 153°21'1 4.6
2017-Oct-16 22:56S 27°38' E 153°22'1 0.7
2017-Oct-16 21:05S 27°39' E 153°21'111.0
2017-Oct-16 21:00S 27°38' E 153°22'0 0.0
2017-Oct-16 09:11S 27°38' E 153°22'1 7.3
2017-Oct-16 09:00S 27°39' E 153°21'1 1.7
2017-Oct-16 08:27S 27°38' E 153°22'1 2.0
2017-Oct-16 07:59S 27°39' E 153°21'0 0.6
2017-Oct-16 07:28S 27°38' E 153°21'0 0.1
2017-Oct-16 07:00S 27°38' E 153°21'0 0.8
2017-Oct-16 06:28S 27°39' E 153°21'0 0.9
2017-Oct-16 05:57S 27°38' E 153°21'0 0.9
2017-Oct-16 05:30S 27°39' E 153°21'1 2.6
2017-Oct-16 05:00S 27°38' E 153°22'1 1.4
2017-Oct-16 04:19S 27°38' E 153°21'0 0.2
2017-Oct-16 02:26S 27°38' E 153°21'0 0.5
2017-Oct-16 01:40S 27°39' E 153°21'1 6.9
2017-Oct-16 01:30S 27°38' E 153°22'1 0.6
2017-Oct-16 00:13S 27°39' E 153°22'1 0.6
2017-Oct-15 23:13S 27°39' E 153°21'1 0.4
2017-Oct-15 21:37S 27°38' E 153°20'0 0.3
2017-Oct-15 21:08S 27°38' E 153°21'3 0.2
2017-Oct-15 05:53S 27°38' E 153°24'3 8.9
2017-Oct-15 05:30S 27°38' E 153°20'2 3.5
2017-Oct-15 05:00S 27°38' E 153°22'1 1.3
2017-Oct-15 03:52S 27°38' E 153°23'3 8.1
2017-Oct-15 03:30S 27°38' E 153°20'2 3.1
2017-Oct-15 03:00S 27°38' E 153°22'2 3.8
2017-Oct-15 02:30S 27°38' E 153°20'2 3.7
2017-Oct-15 01:59S 27°38' E 153°22'2 3.2
2017-Oct-15 01:30S 27°38' E 153°20'2 4.0
2017-Oct-15 01:00S 27°38' E 153°22'2 4.2
2017-Oct-15 00:31S 27°38' E 153°20'2 3.0
2017-Oct-14 23:58S 27°38' E 153°22'2 4.0
2017-Oct-14 23:30S 27°38' E 153°20'2 3.6
2017-Oct-14 22:59S 27°38' E 153°22'2 3.2
2017-Oct-14 22:30S 27°38' E 153°20'2 2.3
2017-Oct-14 21:47S 27°37' E 153°19'310.0
2017-Oct-14 21:30S 27°38' E 153°22'3 4.2
2017-Oct-14 20:49S 27°37' E 153°19'3 9.3
2017-Oct-14 20:30S 27°38' E 153°22'3 4.1
2017-Oct-14 19:47S 27°37' E 153°19'310.0
2017-Oct-14 19:30S 27°38' E 153°22'1 0.1
2017-Oct-14 05:54S 27°39' E 153°23'3 6.5
2017-Oct-14 05:30S 27°38' E 153°20'1 2.8
2017-Oct-14 05:00S 27°38' E 153°22'1 1.2
2017-Oct-14 03:54S 27°38' E 153°23'3 7.7
2017-Oct-14 03:30S 27°38' E 153°20'2 3.5
2017-Oct-14 03:00S 27°38' E 153°22'2 3.4
2017-Oct-14 02:30S 27°38' E 153°20'2 3.4
2017-Oct-14 01:59S 27°38' E 153°22'2 3.4
2017-Oct-14 01:30S 27°38' E 153°20'2 2.8
2017-Oct-14 00:55S 27°38' E 153°22'1 3.6
2017-Oct-14 00:31S 27°38' E 153°20'1 2.8
2017-Oct-13 23:59S 27°38' E 153°22'2 4.1
2017-Oct-13 23:30S 27°38' E 153°20'2 3.6
2017-Oct-13 22:58S 27°38' E 153°22'2 4.2
2017-Oct-13 22:30S 27°38' E 153°20'1 1.5
2017-Oct-13 21:48S 27°37' E 153°19'3 9.4
2017-Oct-13 21:30S 27°38' E 153°22'3 6.0
2017-Oct-13 21:00S 27°37' E 153°19'3 5.8
2017-Oct-13 20:30S 27°38' E 153°22'3 4.2
2017-Oct-13 19:49S 27°37' E 153°19'310.2
2017-Oct-13 19:30S 27°38' E 153°22'3 4.1
2017-Oct-13 18:43S 27°37' E 153°19'311.6
2017-Oct-13 18:28S 27°38' E 153°22'1 0.1
2017-Oct-13 07:42S 27°39' E 153°23'1 5.2
2017-Oct-13 07:26S 27°38' E 153°22'1 1.7
2017-Oct-13 06:58S 27°39' E 153°21'1 2.3
2017-Oct-13 06:30S 27°38' E 153°22'1 2.0
2017-Oct-13 05:57S 27°39' E 153°21'1 2.2
2017-Oct-13 05:29S 27°38' E 153°22'1 2.0
2017-Oct-13 05:00S 27°39' E 153°21'1 2.0
2017-Oct-13 04:29S 27°38' E 153°22'  
Track history (hours):
 
Tides and Currents Weather Stations Pressure Air Temp Water Temp Dewpoint Dewpoint Depression Visibility Wind Speed Wind Dir Waves Ship Positions

Perulpa

Last reported at 2017-Oct-23 04:27 UTC. Time now 2017-Oct-23 04:38 UTC.
Position S 27°39' E 153°22'.

Length 24 m.

Type: Passenger vessel. MMSI: 503701100.

Date/timePositionNaut miles runAvg speedWind from/ knotsBaromVisibWave heightAir tempDewpointWater temp
2017-Oct-23 04:27S 27°39' E 153°22'1 1.2
2017-Oct-23 03:54S 27°39' E 153°21'1 1.7
2017-Oct-23 03:26S 27°38' E 153°22'1 1.0
2017-Oct-23 02:52S 27°39' E 153°21'1 0.8
2017-Oct-23 01:08S 27°38' E 153°22'1 4.2
2017-Oct-23 00:56S 27°38' E 153°21'1 1.4
2017-Oct-23 00:30S 27°39' E 153°21'1 1.5
2017-Oct-22 23:55S 27°38' E 153°22'1 2.7
2017-Oct-22 23:24S 27°38' E 153°20'1 1.7
2017-Oct-22 22:51S 27°38' E 153°22'3 2.8
2017-Oct-22 21:51S 27°37' E 153°19'3 7.9
2017-Oct-22 21:25S 27°38' E 153°23'1 2.0
2017-Oct-22 20:44S 27°39' E 153°21'2 7.1
2017-Oct-22 20:29S 27°38' E 153°23'4 6.4
2017-Oct-22 19:53S 27°37' E 153°19'4 9.9
2017-Oct-22 19:30S 27°38' E 153°23'3 3.2
2017-Oct-22 18:43S 27°38' E 153°20'311.8
2017-Oct-22 18:28S 27°38' E 153°23'0 0.0
2017-Oct-22 08:11S 27°38' E 153°23'1 7.9
2017-Oct-22 08:00S 27°38' E 153°22'3 4.0
2017-Oct-22 07:19S 27°37' E 153°19'413.5
2017-Oct-22 07:00S 27°38' E 153°23'2 2.4
2017-Oct-22 06:06S 27°39' E 153°21'2 9.8
2017-Oct-22 05:54S 27°38' E 153°23'3 8.5
2017-Oct-22 05:30S 27°38' E 153°20'2 4.1
2017-Oct-22 04:59S 27°38' E 153°22'0 0.5
2017-Oct-22 04:30S 27°38' E 153°22'3 3.9
2017-Oct-22 03:47S 27°37' E 153°19'412.6
2017-Oct-22 03:27S 27°38' E 153°23'2 2.5
2017-Oct-22 02:38S 27°39' E 153°21'1 5.6
2017-Oct-22 02:23S 27°38' E 153°22'1 1.9
2017-Oct-22 01:39S 27°39' E 153°21'1 4.7
2017-Oct-22 01:21S 27°38' E 153°22'3 5.5
2017-Oct-22 00:47S 27°37' E 153°19'413.5
2017-Oct-22 00:29S 27°39' E 153°23'4 5.9
2017-Oct-21 23:48S 27°37' E 153°19'412.0
2017-Oct-21 23:28S 27°39' E 153°23'2 1.4
2017-Oct-21 22:14S 27°39' E 153°21'2 8.7
2017-Oct-21 22:00S 27°38' E 153°23'2 2.6
2017-Oct-21 21:14S 27°39' E 153°21'1 0.1
2017-Oct-21 08:07S 27°38' E 153°22'0 3.7
2017-Oct-21 08:00S 27°38' E 153°22'1 1.5
2017-Oct-21 07:13S 27°39' E 153°21'0 0.0
2017-Oct-21 06:05S 27°39' E 153°21'2 5.2
2017-Oct-21 05:47S 27°38' E 153°22'2 7.4
2017-Oct-21 05:30S 27°38' E 153°20'2 3.1
2017-Oct-21 04:58S 27°38' E 153°22'0 0.6
2017-Oct-21 04:26S 27°38' E 153°22'1 0.9
2017-Oct-21 03:38S 27°39' E 153°21'210.1
2017-Oct-21 03:27S 27°39' E 153°23'2 2.5
2017-Oct-21 02:40S 27°39' E 153°21'1 5.2
2017-Oct-21 02:24S 27°38' E 153°22'1 2.0
2017-Oct-21 01:39S 27°39' E 153°21'210.2
2017-Oct-21 01:26S 27°38' E 153°23'4 6.5
2017-Oct-21 00:46S 27°37' E 153°19'413.1
2017-Oct-21 00:27S 27°39' E 153°23'2 2.4
2017-Oct-20 23:40S 27°39' E 153°21'2 9.4
2017-Oct-20 23:26S 27°38' E 153°23'2 1.7
2017-Oct-20 22:15S 27°39' E 153°21'1 4.5
2017-Oct-20 21:58S 27°38' E 153°22'1 2.0
2017-Oct-20 21:15S 27°39' E 153°21'2 0.2
2017-Oct-20 09:14S 27°38' E 153°23'2 9.3
2017-Oct-20 09:00S 27°39' E 153°21'0 0.2
2017-Oct-20 08:29S 27°39' E 153°21'0 0.7
2017-Oct-20 08:00S 27°38' E 153°21'1 1.0
2017-Oct-20 07:29S 27°39' E 153°21'0 0.5
2017-Oct-20 07:00S 27°39' E 153°21'0 0.9
2017-Oct-20 06:29S 27°38' E 153°21'0 0.9
2017-Oct-20 06:00S 27°39' E 153°21'0 0.2
2017-Oct-20 05:30S 27°39' E 153°21'1 2.4
2017-Oct-20 05:00S 27°38' E 153°22'3 5.2
2017-Oct-20 04:27S 27°37' E 153°19'4 2.3
2017-Oct-20 02:45S 27°39' E 153°23'1 4.5
2017-Oct-20 02:30S 27°38' E 153°22'2 2.0
2017-Oct-20 01:43S 27°38' E 153°20'2 7.2
2017-Oct-20 01:30S 27°38' E 153°22'3 3.9
2017-Oct-20 00:48S 27°37' E 153°19'3 9.5
2017-Oct-20 00:30S 27°38' E 153°22'1 0.9
2017-Oct-19 23:16S 27°39' E 153°21'2 7.5
2017-Oct-19 23:00S 27°38' E 153°23'2 2.7
2017-Oct-19 22:12S 27°39' E 153°21'2 9.7
2017-Oct-19 21:57S 27°38' E 153°23'4 9.9
2017-Oct-19 21:30S 27°37' E 153°19'3 5.7
2017-Oct-19 21:00S 27°38' E 153°22'1 0.1
2017-Oct-19 09:16S 27°39' E 153°23'2 5.5
2017-Oct-19 09:00S 27°38' E 153°21'1 1.3
2017-Oct-19 08:30S 27°38' E 153°21'1 1.3
2017-Oct-19 08:00S 27°38' E 153°21'0 0.6
2017-Oct-19 07:30S 27°39' E 153°21'1 1.2
2017-Oct-19 07:00S 27°38' E 153°20'1 2.5
2017-Oct-19 06:30S 27°39' E 153°22'1 2.0
2017-Oct-19 06:00S 27°39' E 153°21'0 0.8
2017-Oct-19 05:30S 27°39' E 153°21'1 1.8
2017-Oct-19 04:59S 27°38' E 153°22'3 5.3
2017-Oct-19 04:26S 27°37' E 153°19'4 2.4
2017-Oct-19 02:44S 27°39' E 153°23'1 4.6
2017-Oct-19 02:27S 27°38' E 153°22'1 1.1
2017-Oct-19 01:40S 27°39' E 153°21'1 6.6
2017-Oct-19 01:29S 27°38' E 153°22'3 4.2
2017-Oct-19 00:48S 27°37' E 153°19'3 9.8
2017-Oct-19 00:30S 27°38' E 153°22'1 0.9
2017-Oct-18 23:15S 27°39' E 153°21'1 5.3
2017-Oct-18 22:59S 27°38' E 153°22'1 1.8
2017-Oct-18 22:09S 27°39' E 153°21'1 5.2
2017-Oct-18 21:53S 27°38' E 153°22'1 1.7
2017-Oct-18 21:04S 27°39' E 153°21'1 7.0
2017-Oct-18 20:55S 27°38' E 153°22'0 0.0
2017-Oct-18 09:12S 27°38' E 153°22'1 5.1
2017-Oct-18 09:00S 27°38' E 153°21'0 0.8
2017-Oct-18 08:30S 27°39' E 153°21'0 0.3
2017-Oct-18 07:59S 27°39' E 153°21'1 0.3
2017-Oct-18 06:27S 27°38' E 153°21'1 1.1
2017-Oct-18 05:58S 27°39' E 153°21'1 0.7
2017-Oct-18 04:51S 27°38' E 153°22'1 1.4
2017-Oct-18 04:19S 27°39' E 153°21'2 1.3
2017-Oct-18 02:41S 27°38' E 153°23'1 7.1
2017-Oct-18 02:29S 27°38' E 153°22'1 1.1
2017-Oct-18 01:40S 27°39' E 153°21'1 6.9
2017-Oct-18 01:30S 27°38' E 153°22'1 1.2
2017-Oct-18 00:39S 27°39' E 153°21'1 6.8
2017-Oct-18 00:30S 27°38' E 153°22'1 0.9
2017-Oct-17 23:15S 27°39' E 153°21'2 9.0
2017-Oct-17 23:00S 27°38' E 153°23'2 2.6
2017-Oct-17 22:10S 27°39' E 153°21'2 9.0
2017-Oct-17 21:56S 27°38' E 153°23'2 2.7
2017-Oct-17 21:06S 27°39' E 153°21'2 0.1
2017-Oct-17 09:20S 27°39' E 153°23'1 4.3
2017-Oct-17 09:00S 27°38' E 153°21'0 1.0
2017-Oct-17 08:30S 27°39' E 153°21'1 1.2
2017-Oct-17 08:00S 27°38' E 153°21'1 1.1
2017-Oct-17 07:28S 27°39' E 153°21'0 0.4
2017-Oct-17 06:27S 27°38' E 153°21'1 1.4
2017-Oct-17 05:57S 27°38' E 153°20'1 1.3
2017-Oct-17 05:30S 27°39' E 153°21'1 2.2
2017-Oct-17 05:00S 27°38' E 153°22'1 1.8
2017-Oct-17 04:19S 27°39' E 153°21'0 0.0
2017-Oct-17 01:40S 27°39' E 153°21'2 5.9
2017-Oct-17 01:22S 27°39' E 153°23'4 7.1
2017-Oct-17 00:47S 27°37' E 153°19'3 9.9
2017-Oct-17 00:30S 27°38' E 153°22'1 0.7
2017-Oct-16 23:13S 27°39' E 153°21'1 4.6
2017-Oct-16 22:56S 27°38' E 153°22'1 0.7
2017-Oct-16 21:05S 27°39' E 153°21'111.0
2017-Oct-16 21:00S 27°38' E 153°22'0 0.0
2017-Oct-16 09:11S 27°38' E 153°22'1 7.3
2017-Oct-16 09:00S 27°39' E 153°21'1 1.7
2017-Oct-16 08:27S 27°38' E 153°22'1 2.0
2017-Oct-16 07:59S 27°39' E 153°21'0 0.6
2017-Oct-16 07:28S 27°38' E 153°21'0 0.1
2017-Oct-16 07:00S 27°38' E 153°21'0 0.8
2017-Oct-16 06:28S 27°39' E 153°21'0 0.9
2017-Oct-16 05:57S 27°38' E 153°21'0 0.9
2017-Oct-16 05:30S 27°39' E 153°21'1 2.6
2017-Oct-16 05:00S 27°38' E 153°22'1 1.4
2017-Oct-16 04:19S 27°38' E 153°21'0 0.2
2017-Oct-16 02:26S 27°38' E 153°21'0 0.5
2017-Oct-16 01:40S 27°39' E 153°21'1 6.9
2017-Oct-16 01:30S 27°38' E 153°22'1 0.6
2017-Oct-16 00:13S 27°39' E 153°22'1 0.6
2017-Oct-15 23:13S 27°39' E 153°21'1 0.4
2017-Oct-15 21:37S 27°38' E 153°20'0 0.3
2017-Oct-15 21:08S 27°38' E 153°21'3 0.2
2017-Oct-15 05:53S 27°38' E 153°24'3 8.9
2017-Oct-15 05:30S 27°38' E 153°20'2 3.5
2017-Oct-15 05:00S 27°38' E 153°22'1 1.3
2017-Oct-15 03:52S 27°38' E 153°23'3 8.1
2017-Oct-15 03:30S 27°38' E 153°20'2 3.1
2017-Oct-15 03:00S 27°38' E 153°22'2 3.8
2017-Oct-15 02:30S 27°38' E 153°20'2 3.7
2017-Oct-15 01:59S 27°38' E 153°22'2 3.2
2017-Oct-15 01:30S 27°38' E 153°20'2 4.0
2017-Oct-15 01:00S 27°38' E 153°22'2 4.2
2017-Oct-15 00:31S 27°38' E 153°20'2 3.0
2017-Oct-14 23:58S 27°38' E 153°22'2 4.0
2017-Oct-14 23:30S 27°38' E 153°20'2 3.6
2017-Oct-14 22:59S 27°38' E 153°22'2 3.2
2017-Oct-14 22:30S 27°38' E 153°20'2 2.3
2017-Oct-14 21:47S 27°37' E 153°19'310.0
2017-Oct-14 21:30S 27°38' E 153°22'3 4.2
2017-Oct-14 20:49S 27°37' E 153°19'3 9.3
2017-Oct-14 20:30S 27°38' E 153°22'3 4.1
2017-Oct-14 19:47S 27°37' E 153°19'310.0
2017-Oct-14 19:30S 27°38' E 153°22'1 0.1
2017-Oct-14 05:54S 27°39' E 153°23'3 6.5
2017-Oct-14 05:30S 27°38' E 153°20'1 2.8
2017-Oct-14 05:00S 27°38' E 153°22'1 1.2
2017-Oct-14 03:54S 27°38' E 153°23'3 7.7
2017-Oct-14 03:30S 27°38' E 153°20'2 3.5
2017-Oct-14 03:00S 27°38' E 153°22'2 3.4
2017-Oct-14 02:30S 27°38' E 153°20'2 3.4
2017-Oct-14 01:59S 27°38' E 153°22'2 3.4
2017-Oct-14 01:30S 27°38' E 153°20'2 2.8
2017-Oct-14 00:55S 27°38' E 153°22'1 3.6
2017-Oct-14 00:31S 27°38' E 153°20'1 2.8
2017-Oct-13 23:59S 27°38' E 153°22'2 4.1
2017-Oct-13 23:30S 27°38' E 153°20'2 3.6
2017-Oct-13 22:58S 27°38' E 153°22'2 4.2
2017-Oct-13 22:30S 27°38' E 153°20'1 1.5
2017-Oct-13 21:48S 27°37' E 153°19'3 9.4
2017-Oct-13 21:30S 27°38' E 153°22'3 6.0
2017-Oct-13 21:00S 27°37' E 153°19'3 5.8
2017-Oct-13 20:30S 27°38' E 153°22'3 4.2
2017-Oct-13 19:49S 27°37' E 153°19'310.2
2017-Oct-13 19:30S 27°38' E 153°22'3 4.1
2017-Oct-13 18:43S 27°37' E 153°19'311.6
2017-Oct-13 18:28S 27°38' E 153°22'1 0.1
2017-Oct-13 07:42S 27°39' E 153°23'1 5.2
2017-Oct-13 07:26S 27°38' E 153°22'1 1.7
2017-Oct-13 06:58S 27°39' E 153°21'1 2.3
2017-Oct-13 06:30S 27°38' E 153°22'1 2.0
2017-Oct-13 05:57S 27°39' E 153°21'1 2.2
2017-Oct-13 05:29S 27°38' E 153°22'1 2.0
2017-Oct-13 05:00S 27°39' E 153°21'1 2.0
2017-Oct-13 04:29S 27°38' E 153°22'  

Dump ship's entire track history